createdAt,value
2022-12-18T00:00:24.649Z,10.61
2022-12-18T00:05:45.377Z,10.59
2022-12-18T00:11:07.059Z,10.78
2022-12-18T00:16:28.611Z,10.71
2022-12-18T00:21:49.672Z,10.77
2022-12-18T00:27:10.473Z,11.06
2022-12-18T00:32:30.963Z,9.17
2022-12-18T00:37:52.223Z,10.46
2022-12-18T00:43:12.986Z,9.92
2022-12-18T00:48:33.849Z,12.22
2022-12-18T00:53:56.521Z,12.00
2022-12-18T00:59:17.146Z,11.36
2022-12-18T01:04:38.262Z,8.61
2022-12-18T01:10:05.516Z,9.55
2022-12-18T01:15:30.462Z,10.54
2022-12-18T01:20:54.263Z,10.63
2022-12-18T01:26:20.998Z,10.05
2022-12-18T01:31:42.051Z,10.51
2022-12-18T01:37:07.240Z,9.26
2022-12-18T01:42:34.415Z,8.88
2022-12-18T01:47:58.169Z,10.26
2022-12-18T01:53:22.657Z,9.07
2022-12-18T01:58:50.466Z,9.39
2022-12-18T02:04:17.562Z,9.80
2022-12-18T02:09:42.859Z,11.17
2022-12-18T02:15:08.647Z,10.41
2022-12-18T02:20:34.839Z,11.29
2022-12-18T02:25:59.393Z,10.60
2022-12-18T02:31:28.225Z,10.39
2022-12-18T02:36:52.951Z,11.12
2022-12-18T02:42:19.167Z,10.09
2022-12-18T02:47:44.401Z,8.28
2022-12-18T02:53:10.937Z,8.56
2022-12-18T02:58:35.503Z,7.51
2022-12-18T03:03:56.797Z,7.66
2022-12-18T03:09:23.438Z,7.22
2022-12-18T03:14:49.942Z,8.25
2022-12-18T03:20:17.463Z,8.44
2022-12-18T03:25:38.385Z,8.37
2022-12-18T03:31:05.307Z,8.71
2022-12-18T03:36:29.293Z,7.50
2022-12-18T03:41:50.307Z,6.49
2022-12-18T03:47:17.398Z,8.10
2022-12-18T03:52:42.832Z,7.82
2022-12-18T03:58:09.574Z,7.44
2022-12-18T04:03:36.566Z,7.95
2022-12-18T04:09:00.925Z,7.79
2022-12-18T04:14:28.415Z,6.74
2022-12-18T04:19:55.519Z,8.37
2022-12-18T04:25:19.364Z,6.81
2022-12-18T04:30:46.405Z,6.93
2022-12-18T04:36:13.242Z,7.42
2022-12-18T04:41:40.677Z,7.35
2022-12-18T04:47:06.631Z,7.37
2022-12-18T04:52:27.360Z,7.18
2022-12-18T04:57:53.653Z,6.77
2022-12-18T05:03:20.795Z,6.51
2022-12-18T05:08:41.697Z,8.61
2022-12-18T05:14:07.456Z,7.31
2022-12-18T05:19:32.147Z,7.25
2022-12-18T05:24:58.123Z,7.68
2022-12-18T05:30:24.441Z,9.47
2022-12-18T05:35:51.839Z,6.91
2022-12-18T05:41:17.411Z,7.85
2022-12-18T05:46:41.072Z,6.33
2022-12-18T05:52:07.833Z,5.56
2022-12-18T05:57:28.515Z,8.05
2022-12-18T06:02:53.248Z,4.90
2022-12-18T06:08:19.304Z,7.55
2022-12-18T06:13:45.558Z,6.41
2022-12-18T06:19:13.121Z,10.23
2022-12-18T06:24:40.010Z,8.80
2022-12-18T06:30:03.104Z,7.76
2022-12-18T06:35:31.888Z,8.94
2022-12-18T06:40:52.633Z,6.51
2022-12-18T06:46:18.174Z,7.30
2022-12-18T06:51:57.857Z,10.77
2022-12-18T06:57:23.611Z,9.61
2022-12-18T07:02:44.349Z,8.19
2022-12-18T07:08:08.975Z,8.11
2022-12-18T07:13:32.347Z,6.15
2022-12-18T07:18:52.575Z,10.68
2022-12-18T07:24:19.920Z,7.62
2022-12-18T07:29:45.572Z,9.84
2022-12-18T07:35:13.079Z,9.30
2022-12-18T07:40:40.717Z,9.31
2022-12-18T07:46:02.973Z,8.28
2022-12-18T07:51:28.471Z,7.82
2022-12-18T07:56:48.894Z,7.05
2022-12-18T08:02:15.286Z,6.73
2022-12-18T08:07:40.304Z,7.92
2022-12-18T08:13:04.933Z,8.34
2022-12-18T08:18:28.140Z,9.60
2022-12-18T08:23:54.084Z,12.07
2022-12-18T08:29:19.973Z,11.73
2022-12-18T08:34:40.678Z,10.66
2022-12-18T08:40:05.659Z,8.03
2022-12-18T08:45:27.830Z,6.92
2022-12-18T08:50:51.801Z,11.17
2022-12-18T08:56:13.010Z,7.29
2022-12-18T09:01:38.139Z,10.62
2022-12-18T09:07:04.069Z,9.26
2022-12-18T09:12:30.797Z,11.63
2022-12-18T09:17:58.383Z,11.79
2022-12-18T09:23:20.946Z,10.30
2022-12-18T09:28:44.713Z,10.53
2022-12-18T09:34:11.988Z,11.68
2022-12-18T09:39:35.811Z,8.24
2022-12-18T09:44:57.260Z,13.26
2022-12-18T09:50:23.137Z,14.55
2022-12-18T09:55:49.049Z,12.46
2022-12-18T10:01:14.868Z,11.50
2022-12-18T10:06:41.942Z,11.38
2022-12-18T10:12:04.793Z,9.70
2022-12-18T10:17:25.743Z,10.54
2022-12-18T10:22:50.536Z,8.75
2022-12-18T10:28:18.381Z,9.36
2022-12-18T10:33:45.669Z,11.53
2022-12-18T10:39:12.366Z,12.72
2022-12-18T10:44:37.112Z,15.04
2022-12-18T10:50:02.668Z,14.07
2022-12-18T10:55:37.844Z,10.59
2022-12-18T11:01:04.018Z,11.64
2022-12-18T11:06:30.398Z,13.24
2022-12-18T11:11:56.146Z,12.56
2022-12-18T11:17:26.535Z,12.33
2022-12-18T11:22:46.569Z,12.02
2022-12-18T11:28:13.113Z,13.25
2022-12-18T11:34:11.903Z,13.58
2022-12-18T11:39:17.400Z,12.15
2022-12-18T11:44:38.921Z,12.15
2022-12-18T11:50:02.119Z,12.00
2022-12-18T11:55:26.390Z,13.38
2022-12-18T12:00:54.068Z,11.08
2022-12-18T12:06:18.744Z,10.29
2022-12-18T12:11:40.258Z,11.00
2022-12-18T12:17:06.097Z,13.72
2022-12-18T12:22:33.178Z,10.68
2022-12-18T12:28:00.716Z,13.41
2022-12-18T12:33:28.653Z,12.44
2022-12-18T12:38:57.475Z,12.39
2022-12-18T12:44:21.011Z,11.75
2022-12-18T12:49:45.084Z,10.39
2022-12-18T12:55:07.975Z,10.71
2022-12-18T13:00:32.240Z,15.19
2022-12-18T13:05:57.564Z,12.56
2022-12-18T13:11:23.029Z,13.98
2022-12-18T13:16:51.807Z,12.93
2022-12-18T13:22:39.915Z,14.88
2022-12-18T13:28:00.829Z,13.21
2022-12-18T13:33:29.493Z,12.21
2022-12-18T13:38:57.162Z,13.92
2022-12-18T13:44:50.159Z,13.40
2022-12-18T13:50:15.936Z,13.38
2022-12-18T13:55:42.114Z,11.86
2022-12-18T14:01:09.555Z,13.07
2022-12-18T14:06:43.284Z,14.01
2022-12-18T14:12:04.972Z,13.94
2022-12-18T14:17:32.927Z,12.87
2022-12-18T14:22:53.324Z,14.49
2022-12-18T14:28:19.458Z,14.15
2022-12-18T14:33:41.895Z,11.62
2022-12-18T14:39:04.320Z,12.68
2022-12-18T14:44:44.262Z,13.18
2022-12-18T14:49:58.783Z,13.18
2022-12-18T14:55:27.372Z,13.83
2022-12-18T15:00:51.823Z,13.60
2022-12-18T15:06:16.317Z,11.76
2022-12-18T15:11:58.094Z,13.19
2022-12-18T15:17:20.795Z,12.99
2022-12-18T15:22:45.297Z,10.97
2022-12-18T15:28:12.582Z,12.64
2022-12-18T15:33:42.311Z,13.15
2022-12-18T15:39:13.452Z,13.23
2022-12-18T15:44:41.128Z,13.60
2022-12-18T15:50:05.982Z,12.89
2022-12-18T15:55:32.912Z,15.52
2022-12-18T16:00:58.991Z,14.20
2022-12-18T16:06:23.787Z,14.76
2022-12-18T16:11:48.815Z,15.12
2022-12-18T16:17:12.904Z,15.27
2022-12-18T16:22:38.382Z,14.86
2022-12-18T16:28:05.201Z,16.46
2022-12-18T16:33:30.342Z,17.78
2022-12-18T16:38:57.611Z,15.63
2022-12-18T16:44:24.608Z,16.78
2022-12-18T16:49:52.300Z,17.04
2022-12-18T16:55:15.885Z,14.26
2022-12-18T17:00:43.092Z,15.69
2022-12-18T17:06:10.244Z,15.41
2022-12-18T17:11:37.179Z,13.81
2022-12-18T17:17:21.246Z,13.41
2022-12-18T17:22:27.155Z,15.26
2022-12-18T17:27:53.304Z,15.15
2022-12-18T17:33:19.702Z,14.82
2022-12-18T17:38:45.972Z,13.28
2022-12-18T17:44:11.985Z,14.02
2022-12-18T17:49:37.714Z,14.10
2022-12-18T17:54:58.460Z,12.89
2022-12-18T18:00:23.629Z,14.85
2022-12-18T18:05:44.283Z,15.17
2022-12-18T18:11:12.878Z,18.09
2022-12-18T18:16:38.529Z,17.30
2022-12-18T18:22:04.595Z,18.27
2022-12-18T18:27:35.252Z,14.60
2022-12-18T18:32:56.018Z,14.75
2022-12-18T18:38:22.993Z,13.37
2022-12-18T18:43:50.566Z,14.37
2022-12-18T18:49:16.337Z,14.97
2022-12-18T18:54:37.292Z,17.07
2022-12-18T19:00:03.264Z,14.15
2022-12-18T19:05:28.510Z,15.76
2022-12-18T19:10:57.500Z,16.30
2022-12-18T19:16:18.336Z,16.35
2022-12-18T19:21:43.473Z,16.76
2022-12-18T19:27:09.404Z,16.33
2022-12-18T19:32:35.077Z,16.62
2022-12-18T19:37:55.828Z,16.98
2022-12-18T19:43:22.761Z,15.25
2022-12-18T19:48:50.377Z,15.55
2022-12-18T19:54:16.368Z,16.49
2022-12-18T19:59:35.992Z,15.31
2022-12-18T20:05:01.965Z,15.71
2022-12-18T20:10:24.265Z,13.72
2022-12-18T20:15:50.695Z,17.04
2022-12-18T20:21:14.013Z,15.91
2022-12-18T20:26:38.053Z,15.37
2022-12-18T20:32:03.242Z,13.71
2022-12-18T20:37:27.115Z,16.37
2022-12-18T20:42:54.111Z,16.49
2022-12-18T20:48:26.363Z,14.54
2022-12-18T20:53:46.446Z,16.20
2022-12-18T20:59:07.117Z,16.21
2022-12-18T21:04:31.655Z,16.79
2022-12-18T21:09:57.170Z,16.75
2022-12-18T21:15:28.500Z,17.23
2022-12-18T21:21:34.775Z,22.92
2022-12-18T21:26:57.374Z,20.38
2022-12-18T21:32:21.088Z,20.76
2022-12-18T21:37:45.803Z,18.83
2022-12-18T21:43:06.542Z,16.40
2022-12-18T21:48:32.516Z,18.04
2022-12-18T21:53:56.821Z,15.49
2022-12-18T21:59:23.213Z,19.49
2022-12-18T22:04:48.312Z,18.78
2022-12-18T22:10:09.646Z,17.22
2022-12-18T22:15:33.862Z,15.60
2022-12-18T22:21:01.024Z,17.56
2022-12-18T22:26:39.501Z,18.88
2022-12-18T22:32:01.864Z,18.93
2022-12-18T22:37:28.911Z,17.80
2022-12-18T22:42:55.972Z,18.34
2022-12-18T22:48:22.618Z,18.73
2022-12-18T22:53:49.211Z,18.66
2022-12-18T22:59:16.594Z,18.34
2022-12-18T23:04:43.215Z,17.81
2022-12-18T23:10:04.413Z,16.09
2022-12-18T23:15:28.505Z,15.96
2022-12-18T23:20:52.775Z,15.50
2022-12-18T23:26:13.640Z,15.47
2022-12-18T23:31:36.584Z,15.69
2022-12-18T23:37:04.446Z,15.11
2022-12-18T23:42:31.908Z,14.47
2022-12-18T23:47:58.508Z,15.15
2022-12-18T23:53:19.764Z,15.18
2022-12-18T23:58:47.111Z,16.35
